sensor_id;sensor_type;location;lat;lon;timestamp;temperature;humidity
15099;DHT22;33900;53.640;9.942;2024-01-30T00:01:38;8.40;90.30
15099;DHT22;33900;53.640;9.942;2024-01-30T00:04:04;8.40;90.30
15099;DHT22;33900;53.640;9.942;2024-01-30T00:06:29;8.30;90.40
15099;DHT22;33900;53.640;9.942;2024-01-30T00:08:55;8.30;90.40
15099;DHT22;33900;53.640;9.942;2024-01-30T00:11:21;8.30;90.50
15099;DHT22;33900;53.640;9.942;2024-01-30T00:13:46;8.20;90.50
15099;DHT22;33900;53.640;9.942;2024-01-30T00:16:21;8.20;90.50
15099;DHT22;33900;53.640;9.942;2024-01-30T00:18:47;8.20;90.60
15099;DHT22;33900;53.640;9.942;2024-01-30T00:21:13;8.10;90.60
15099;DHT22;33900;53.640;9.942;2024-01-30T00:23:38;8.10;90.60
15099;DHT22;33900;53.640;9.942;2024-01-30T00:26:04;8.10;90.70
15099;DHT22;33900;53.640;9.942;2024-01-30T00:28:30;8.00;90.70
15099;DHT22;33900;53.640;9.942;2024-01-30T00:30:56;8.00;90.70
15099;DHT22;33900;53.640;9.942;2024-01-30T00:33:22;8.00;90.80
15099;DHT22;33900;53.640;9.942;2024-01-30T00:35:48;7.90;90.70
15099;DHT22;33900;53.640;9.942;2024-01-30T00:38:13;7.90;90.80
15099;DHT22;33900;53.640;9.942;2024-01-30T00:40:39;7.90;90.80
15099;DHT22;33900;53.640;9.942;2024-01-30T00:43:04;7.90;90.90
15099;DHT22;33900;53.640;9.942;2024-01-30T00:45:30;7.80;90.90
15099;DHT22;33900;53.640;9.942;2024-01-30T00:47:55;7.80;90.90
15099;DHT22;33900;53.640;9.942;2024-01-30T00:50:21;7.80;90.90
15099;DHT22;33900;53.640;9.942;2024-01-30T00:52:46;7.80;91.00
15099;DHT22;33900;53.640;9.942;2024-01-30T00:55:12;7.70;91.00
15099;DHT22;33900;53.640;9.942;2024-01-30T00:57:39;7.70;91.00
15099;DHT22;33900;53.640;9.942;2024-01-30T01:00:05;7.70;91.10
15099;DHT22;33900;53.640;9.942;2024-01-30T01:02:33;7.70;91.10
15099;DHT22;33900;53.640;9.942;2024-01-30T01:04:59;7.70;91.10
15099;DHT22;33900;53.640;9.942;2024-01-30T01:07:25;7.60;91.10
15099;DHT22;33900;53.640;9.942;2024-01-30T01:09:50;7.60;91.20
15099;DHT22;33900;53.640;9.942;2024-01-30T01:12:16;7.60;91.20
15099;DHT22;33900;53.640;9.942;2024-01-30T01:14:42;7.60;91.20
15099;DHT22;33900;53.640;9.942;2024-01-30T01:17:07;7.60;91.20
15099;DHT22;33900;53.640;9.942;2024-01-30T01:19:33;7.60;91.30
15099;DHT22;33900;53.640;9.942;2024-01-30T01:21:59;7.60;91.30
15099;DHT22;33900;53.640;9.942;2024-01-30T01:24:24;7.60;91.30
15099;DHT22;33900;53.640;9.942;2024-01-30T01:26:50;7.50;91.30
15099;DHT22;33900;53.640;9.942;2024-01-30T01:29:15;7.50;91.30
15099;DHT22;33900;53.640;9.942;2024-01-30T01:31:41;7.50;91.40
15099;DHT22;33900;53.640;9.942;2024-01-30T01:34:11;7.50;91.40
15099;DHT22;33900;53.640;9.942;2024-01-30T01:36:36;7.50;91.40
15099;DHT22;33900;53.640;9.942;2024-01-30T01:39:02;7.50;91.40
15099;DHT22;33900;53.640;9.942;2024-01-30T01:41:32;7.50;91.40
15099;DHT22;33900;53.640;9.942;2024-01-30T01:43:58;7.50;91.50
15099;DHT22;33900;53.640;9.942;2024-01-30T01:46:26;7.50;91.50
15099;DHT22;33900;53.640;9.942;2024-01-30T01:48:51;7.50;91.50
15099;DHT22;33900;53.640;9.942;2024-01-30T01:51:17;7.50;91.50
15099;DHT22;33900;53.640;9.942;2024-01-30T01:53:42;7.50;91.50
15099;DHT22;33900;53.640;9.942;2024-01-30T01:56:08;7.50;91.60
15099;DHT22;33900;53.640;9.942;2024-01-30T01:58:34;7.50;91.60
15099;DHT22;33900;53.640;9.942;2024-01-30T02:01:00;7.50;91.60
15099;DHT22;33900;53.640;9.942;2024-01-30T02:03:27;7.50;91.70
15099;DHT22;33900;53.640;9.942;2024-01-30T02:05:53;7.50;91.70
15099;DHT22;33900;53.640;9.942;2024-01-30T02:08:19;7.60;91.70
15099;DHT22;33900;53.640;9.942;2024-01-30T02:10:44;7.60;91.70
15099;DHT22;33900;53.640;9.942;2024-01-30T02:13:10;7.60;91.70
15099;DHT22;33900;53.640;9.942;2024-01-30T02:15:36;7.60;91.70
15099;DHT22;33900;53.640;9.942;2024-01-30T02:18:01;7.70;91.70
15099;DHT22;33900;53.640;9.942;2024-01-30T02:20:27;7.70;91.70
15099;DHT22;33900;53.640;9.942;2024-01-30T02:22:54;7.70;91.70
15099;DHT22;33900;53.640;9.942;2024-01-30T02:25:29;7.70;91.70
15099;DHT22;33900;53.640;9.942;2024-01-30T02:27:55;7.70;91.70
15099;DHT22;33900;53.640;9.942;2024-01-30T02:30:21;7.70;91.70
15099;DHT22;33900;53.640;9.942;2024-01-30T02:32:46;7.70;91.70
15099;DHT22;33900;53.640;9.942;2024-01-30T02:35:12;7.70;91.70
15099;DHT22;33900;53.640;9.942;2024-01-30T02:37:38;7.70;91.70
15099;DHT22;33900;53.640;9.942;2024-01-30T02:40:04;7.70;91.70
15099;DHT22;33900;53.640;9.942;2024-01-30T02:42:29;7.70;91.70
15099;DHT22;33900;53.640;9.942;2024-01-30T02:44:55;7.70;91.70
15099;DHT22;33900;53.640;9.942;2024-01-30T02:47:21;7.70;91.70
15099;DHT22;33900;53.640;9.942;2024-01-30T02:49:46;7.70;91.80
15099;DHT22;33900;53.640;9.942;2024-01-30T02:52:12;7.70;91.80
15099;DHT22;33900;53.640;9.942;2024-01-30T02:54:37;7.70;91.80
15099;DHT22;33900;53.640;9.942;2024-01-30T02:57:03;7.60;91.70
15099;DHT22;33900;53.640;9.942;2024-01-30T02:59:29;7.60;91.80
15099;DHT22;33900;53.640;9.942;2024-01-30T03:01:54;7.60;91.80
15099;DHT22;33900;53.640;9.942;2024-01-30T03:04:20;7.60;91.80
15099;DHT22;33900;53.640;9.942;2024-01-30T03:06:46;7.60;91.80
15099;DHT22;33900;53.640;9.942;2024-01-30T03:09:12;7.50;91.80
15099;DHT22;33900;53.640;9.942;2024-01-30T03:11:38;7.60;91.80
15099;DHT22;33900;53.640;9.942;2024-01-30T03:14:04;7.50;91.80
15099;DHT22;33900;53.640;9.942;2024-01-30T03:16:30;7.50;91.80
15099;DHT22;33900;53.640;9.942;2024-01-30T03:18:55;7.50;91.80
15099;DHT22;33900;53.640;9.942;2024-01-30T03:21:21;7.50;91.90
15099;DHT22;33900;53.640;9.942;2024-01-30T03:23:47;7.50;91.90
15099;DHT22;33900;53.640;9.942;2024-01-30T03:26:12;7.50;91.90
15099;DHT22;33900;53.640;9.942;2024-01-30T03:28:40;7.50;91.90
15099;DHT22;33900;53.640;9.942;2024-01-30T03:31:05;7.40;91.90
15099;DHT22;33900;53.640;9.942;2024-01-30T03:33:33;7.40;91.90
15099;DHT22;33900;53.640;9.942;2024-01-30T03:36:02;7.40;91.90
15099;DHT22;33900;53.640;9.942;2024-01-30T03:38:28;7.30;91.90
15099;DHT22;33900;53.640;9.942;2024-01-30T03:40:53;7.40;92.00
15099;DHT22;33900;53.640;9.942;2024-01-30T03:46:11;7.30;92.00
15099;DHT22;33900;53.640;9.942;2024-01-30T03:48:36;7.30;92.00
15099;DHT22;33900;53.640;9.942;2024-01-30T03:51:02;7.30;92.00
15099;DHT22;33900;53.640;9.942;2024-01-30T03:53:28;7.30;92.00
15099;DHT22;33900;53.640;9.942;2024-01-30T03:55:54;7.30;92.00
15099;DHT22;33900;53.640;9.942;2024-01-30T03:58:19;7.30;92.10
15099;DHT22;33900;53.640;9.942;2024-01-30T04:00:45;7.30;92.10
15099;DHT22;33900;53.640;9.942;2024-01-30T04:03:10;7.30;92.10
15099;DHT22;33900;53.640;9.942;2024-01-30T04:05:36;7.20;92.10
15099;DHT22;33900;53.640;9.942;2024-01-30T04:08:01;7.20;92.10
15099;DHT22;33900;53.640;9.942;2024-01-30T04:10:27;7.20;92.10
15099;DHT22;33900;53.640;9.942;2024-01-30T04:12:53;7.20;92.10
15099;DHT22;33900;53.640;9.942;2024-01-30T04:15:19;7.20;92.10
15099;DHT22;33900;53.640;9.942;2024-01-30T04:17:45;7.20;92.10
15099;DHT22;33900;53.640;9.942;2024-01-30T04:20:16;7.10;92.10
15099;DHT22;33900;53.640;9.942;2024-01-30T04:22:45;7.10;92.10
15099;DHT22;33900;53.640;9.942;2024-01-30T04:25:11;7.10;92.20
15099;DHT22;33900;53.640;9.942;2024-01-30T04:27:37;7.10;92.20
15099;DHT22;33900;53.640;9.942;2024-01-30T04:30:03;7.10;92.30
15099;DHT22;33900;53.640;9.942;2024-01-30T04:32:29;7.10;92.20
15099;DHT22;33900;53.640;9.942;2024-01-30T04:34:55;7.10;92.20
15099;DHT22;33900;53.640;9.942;2024-01-30T04:37:20;7.10;92.30
15099;DHT22;33900;53.640;9.942;2024-01-30T04:39:47;7.10;92.60
15099;DHT22;33900;53.640;9.942;2024-01-30T04:42:13;7.10;92.30
15099;DHT22;33900;53.640;9.942;2024-01-30T04:44:39;7.10;92.30
15099;DHT22;33900;53.640;9.942;2024-01-30T04:47:04;7.10;92.30
15099;DHT22;33900;53.640;9.942;2024-01-30T04:49:31;7.20;92.30
15099;DHT22;33900;53.640;9.942;2024-01-30T04:51:57;7.20;92.30
15099;DHT22;33900;53.640;9.942;2024-01-30T04:54:23;7.10;92.30
15099;DHT22;33900;53.640;9.942;2024-01-30T04:56:48;7.10;92.30
15099;DHT22;33900;53.640;9.942;2024-01-30T04:59:14;7.10;92.30
15099;DHT22;33900;53.640;9.942;2024-01-30T05:01:39;7.10;92.30
15099;DHT22;33900;53.640;9.942;2024-01-30T05:04:08;7.00;92.30
15099;DHT22;33900;53.640;9.942;2024-01-30T05:06:34;7.10;92.30
15099;DHT22;33900;53.640;9.942;2024-01-30T05:09:00;7.10;92.40
15099;DHT22;33900;53.640;9.942;2024-01-30T05:11:25;7.10;92.30
15099;DHT22;33900;53.640;9.942;2024-01-30T05:13:51;7.10;92.30
15099;DHT22;33900;53.640;9.942;2024-01-30T05:16:16;7.10;92.30
15099;DHT22;33900;53.640;9.942;2024-01-30T05:18:43;7.20;92.40
15099;DHT22;33900;53.640;9.942;2024-01-30T05:21:08;7.20;92.40
15099;DHT22;33900;53.640;9.942;2024-01-30T05:23:35;7.20;92.40
15099;DHT22;33900;53.640;9.942;2024-01-30T05:26:01;7.20;92.50
15099;DHT22;33900;53.640;9.942;2024-01-30T05:28:29;7.30;92.40
15099;DHT22;33900;53.640;9.942;2024-01-30T05:30:54;7.30;92.40
15099;DHT22;33900;53.640;9.942;2024-01-30T05:33:20;7.20;92.40
15099;DHT22;33900;53.640;9.942;2024-01-30T05:35:45;7.20;92.80
15099;DHT22;33900;53.640;9.942;2024-01-30T05:38:11;7.20;92.40
15099;DHT22;33900;53.640;9.942;2024-01-30T05:40:38;7.20;92.50
15099;DHT22;33900;53.640;9.942;2024-01-30T05:43:03;7.30;92.50
15099;DHT22;33900;53.640;9.942;2024-01-30T05:45:29;7.30;92.50
15099;DHT22;33900;53.640;9.942;2024-01-30T05:47:54;7.30;92.40
15099;DHT22;33900;53.640;9.942;2024-01-30T05:50:20;7.30;92.40
15099;DHT22;33900;53.640;9.942;2024-01-30T05:52:48;7.30;92.40
15099;DHT22;33900;53.640;9.942;2024-01-30T05:55:14;7.30;92.50
15099;DHT22;33900;53.640;9.942;2024-01-30T05:57:39;7.30;92.40
15099;DHT22;33900;53.640;9.942;2024-01-30T06:00:05;7.30;92.50
15099;DHT22;33900;53.640;9.942;2024-01-30T06:02:32;7.30;92.50
15099;DHT22;33900;53.640;9.942;2024-01-30T06:04:58;7.40;92.50
15099;DHT22;33900;53.640;9.942;2024-01-30T06:07:24;7.30;92.40
15099;DHT22;33900;53.640;9.942;2024-01-30T06:09:49;7.40;92.50
15099;DHT22;33900;53.640;9.942;2024-01-30T06:12:15;7.40;92.50
15099;DHT22;33900;53.640;9.942;2024-01-30T06:14:40;7.40;92.50
15099;DHT22;33900;53.640;9.942;2024-01-30T06:17:08;7.40;92.50
15099;DHT22;33900;53.640;9.942;2024-01-30T06:19:33;7.40;92.60
15099;DHT22;33900;53.640;9.942;2024-01-30T06:21:59;7.40;92.60
15099;DHT22;33900;53.640;9.942;2024-01-30T06:24:25;7.40;92.60
15099;DHT22;33900;53.640;9.942;2024-01-30T06:26:50;7.50;92.60
15099;DHT22;33900;53.640;9.942;2024-01-30T06:29:16;7.40;92.50
15099;DHT22;33900;53.640;9.942;2024-01-30T06:31:42;7.40;92.60
15099;DHT22;33900;53.640;9.942;2024-01-30T06:34:08;7.50;92.60
15099;DHT22;33900;53.640;9.942;2024-01-30T06:36:33;7.50;92.70
15099;DHT22;33900;53.640;9.942;2024-01-30T06:39:00;7.50;92.60
15099;DHT22;33900;53.640;9.942;2024-01-30T06:41:25;7.50;92.60
15099;DHT22;33900;53.640;9.942;2024-01-30T06:43:51;7.50;92.60
15099;DHT22;33900;53.640;9.942;2024-01-30T06:46:17;7.60;92.70
15099;DHT22;33900;53.640;9.942;2024-01-30T06:48:42;7.60;92.70
15099;DHT22;33900;53.640;9.942;2024-01-30T06:51:10;7.60;92.70
15099;DHT22;33900;53.640;9.942;2024-01-30T06:53:36;7.60;92.70
15099;DHT22;33900;53.640;9.942;2024-01-30T06:56:02;7.60;92.70
15099;DHT22;33900;53.640;9.942;2024-01-30T06:58:27;7.70;92.70
15099;DHT22;33900;53.640;9.942;2024-01-30T07:00:54;7.70;92.70
15099;DHT22;33900;53.640;9.942;2024-01-30T07:03:19;7.70;92.70
15099;DHT22;33900;53.640;9.942;2024-01-30T07:05:45;7.70;92.70
15099;DHT22;33900;53.640;9.942;2024-01-30T07:08:10;7.70;92.70
15099;DHT22;33900;53.640;9.942;2024-01-30T07:10:36;7.70;93.00
15099;DHT22;33900;53.640;9.942;2024-01-30T07:13:02;7.70;92.70
15099;DHT22;33900;53.640;9.942;2024-01-30T07:15:27;7.70;92.70
15099;DHT22;33900;53.640;9.942;2024-01-30T07:17:53;7.70;92.70
15099;DHT22;33900;53.640;9.942;2024-01-30T07:20:19;7.60;92.70
15099;DHT22;33900;53.640;9.942;2024-01-30T07:22:45;7.60;92.70
15099;DHT22;33900;53.640;9.942;2024-01-30T07:25:11;7.60;92.70
15099;DHT22;33900;53.640;9.942;2024-01-30T07:27:36;7.60;92.80
15099;DHT22;33900;53.640;9.942;2024-01-30T07:30:02;7.60;92.80
15099;DHT22;33900;53.640;9.942;2024-01-30T07:32:28;7.60;92.80
15099;DHT22;33900;53.640;9.942;2024-01-30T07:34:53;7.60;92.80
15099;DHT22;33900;53.640;9.942;2024-01-30T07:37:19;7.60;92.80
15099;DHT22;33900;53.640;9.942;2024-01-30T07:39:45;7.60;92.80
15099;DHT22;33900;53.640;9.942;2024-01-30T07:42:11;7.60;92.80
15099;DHT22;33900;53.640;9.942;2024-01-30T07:44:36;7.60;92.80
15099;DHT22;33900;53.640;9.942;2024-01-30T07:47:02;7.60;92.80
15099;DHT22;33900;53.640;9.942;2024-01-30T07:49:28;7.60;92.90
15099;DHT22;33900;53.640;9.942;2024-01-30T07:51:53;7.60;92.90
15099;DHT22;33900;53.640;9.942;2024-01-30T07:54:19;7.60;92.90
15099;DHT22;33900;53.640;9.942;2024-01-30T07:56:45;7.60;92.90
15099;DHT22;33900;53.640;9.942;2024-01-30T07:59:11;7.60;92.90
15099;DHT22;33900;53.640;9.942;2024-01-30T08:01:37;7.70;92.90
15099;DHT22;33900;53.640;9.942;2024-01-30T08:04:03;7.70;93.00
15099;DHT22;33900;53.640;9.942;2024-01-30T08:06:28;7.70;93.00
15099;DHT22;33900;53.640;9.942;2024-01-30T08:08:54;7.80;93.00
15099;DHT22;33900;53.640;9.942;2024-01-30T08:11:20;7.80;93.20
15099;DHT22;33900;53.640;9.942;2024-01-30T08:13:45;7.80;93.20
15099;DHT22;33900;53.640;9.942;2024-01-30T08:16:11;7.80;93.10
15099;DHT22;33900;53.640;9.942;2024-01-30T08:18:37;7.90;93.10
15099;DHT22;33900;53.640;9.942;2024-01-30T08:21:03;7.90;93.60
15099;DHT22;33900;53.640;9.942;2024-01-30T08:23:28;7.90;93.20
15099;DHT22;33900;53.640;9.942;2024-01-30T08:25:54;8.00;93.30
15099;DHT22;33900;53.640;9.942;2024-01-30T08:28:20;8.00;93.20
15099;DHT22;33900;53.640;9.942;2024-01-30T08:30:45;8.00;93.20
15099;DHT22;33900;53.640;9.942;2024-01-30T08:33:11;8.00;93.20
15099;DHT22;33900;53.640;9.942;2024-01-30T08:35:36;8.00;93.10
15099;DHT22;33900;53.640;9.942;2024-01-30T08:38:05;8.10;93.30
15099;DHT22;33900;53.640;9.942;2024-01-30T08:40:30;8.10;93.30
15099;DHT22;33900;53.640;9.942;2024-01-30T08:42:56;8.10;93.70
15099;DHT22;33900;53.640;9.942;2024-01-30T08:45:21;8.20;93.40
15099;DHT22;33900;53.640;9.942;2024-01-30T08:47:47;8.20;93.40
15099;DHT22;33900;53.640;9.942;2024-01-30T08:50:13;8.20;93.40
15099;DHT22;33900;53.640;9.942;2024-01-30T08:52:38;8.20;93.40
15099;DHT22;33900;53.640;9.942;2024-01-30T08:55:04;8.30;93.40
15099;DHT22;33900;53.640;9.942;2024-01-30T08:57:30;8.30;93.40
15099;DHT22;33900;53.640;9.942;2024-01-30T08:59:56;8.30;93.40
15099;DHT22;33900;53.640;9.942;2024-01-30T09:02:21;8.40;93.30
15099;DHT22;33900;53.640;9.942;2024-01-30T09:04:47;8.40;93.40
15099;DHT22;33900;53.640;9.942;2024-01-30T09:07:13;8.40;93.30
15099;DHT22;33900;53.640;9.942;2024-01-30T09:09:39;8.50;93.30
15099;DHT22;33900;53.640;9.942;2024-01-30T09:12:06;8.50;93.30
15099;DHT22;33900;53.640;9.942;2024-01-30T09:14:35;8.50;93.50
15099;DHT22;33900;53.640;9.942;2024-01-30T09:17:01;8.60;93.40
15099;DHT22;33900;53.640;9.942;2024-01-30T09:19:26;8.60;93.70
15099;DHT22;33900;53.640;9.942;2024-01-30T09:21:52;8.70;93.30
15099;DHT22;33900;53.640;9.942;2024-01-30T09:24:17;8.70;93.30
15099;DHT22;33900;53.640;9.942;2024-01-30T09:26:43;8.70;93.30
15099;DHT22;33900;53.640;9.942;2024-01-30T09:29:08;8.80;93.30
15099;DHT22;33900;53.640;9.942;2024-01-30T09:31:34;8.80;93.30
15099;DHT22;33900;53.640;9.942;2024-01-30T09:34:00;8.90;93.30
15099;DHT22;33900;53.640;9.942;2024-01-30T09:36:25;8.90;93.20
15099;DHT22;33900;53.640;9.942;2024-01-30T09:38:51;8.90;93.10
15099;DHT22;33900;53.640;9.942;2024-01-30T09:41:17;8.90;93.20
15099;DHT22;33900;53.640;9.942;2024-01-30T09:43:45;9.00;93.20
15099;DHT22;33900;53.640;9.942;2024-01-30T09:46:13;9.10;93.10
15099;DHT22;33900;53.640;9.942;2024-01-30T09:48:45;9.10;93.10
15099;DHT22;33900;53.640;9.942;2024-01-30T09:51:11;9.10;93.10
15099;DHT22;33900;53.640;9.942;2024-01-30T09:53:37;9.10;93.10
15099;DHT22;33900;53.640;9.942;2024-01-30T09:56:03;9.20;93.20
15099;DHT22;33900;53.640;9.942;2024-01-30T09:58:29;9.30;93.50
15099;DHT22;33900;53.640;9.942;2024-01-30T10:00:55;9.30;93.10
15099;DHT22;33900;53.640;9.942;2024-01-30T10:03:20;9.30;93.10
15099;DHT22;33900;53.640;9.942;2024-01-30T10:05:50;9.40;93.10
15099;DHT22;33900;53.640;9.942;2024-01-30T10:08:17;9.50;93.10
15099;DHT22;33900;53.640;9.942;2024-01-30T10:10:49;9.50;93.10
15099;DHT22;33900;53.640;9.942;2024-01-30T10:13:15;9.60;93.10
15099;DHT22;33900;53.640;9.942;2024-01-30T10:15:41;9.60;93.00
15099;DHT22;33900;53.640;9.942;2024-01-30T10:18:10;9.60;93.00
15099;DHT22;33900;53.640;9.942;2024-01-30T10:20:36;9.70;93.00
15099;DHT22;33900;53.640;9.942;2024-01-30T10:23:01;9.70;93.00
15099;DHT22;33900;53.640;9.942;2024-01-30T10:25:27;9.70;92.90
15099;DHT22;33900;53.640;9.942;2024-01-30T10:27:53;9.80;92.90
15099;DHT22;33900;53.640;9.942;2024-01-30T10:30:21;9.80;92.90
15099;DHT22;33900;53.640;9.942;2024-01-30T10:32:46;9.80;92.80
15099;DHT22;33900;53.640;9.942;2024-01-30T10:35:12;9.90;92.90
15099;DHT22;33900;53.640;9.942;2024-01-30T10:37:38;9.90;92.90
15099;DHT22;33900;53.640;9.942;2024-01-30T10:40:05;9.90;92.80
15099;DHT22;33900;53.640;9.942;2024-01-30T10:42:33;10.00;92.80
15099;DHT22;33900;53.640;9.942;2024-01-30T10:47:28;10.00;92.80
15099;DHT22;33900;53.640;9.942;2024-01-30T10:49:54;10.10;92.80
15099;DHT22;33900;53.640;9.942;2024-01-30T10:52:21;10.10;92.70
15099;DHT22;33900;53.640;9.942;2024-01-30T10:54:47;10.10;92.70
15099;DHT22;33900;53.640;9.942;2024-01-30T10:57:15;10.20;92.70
15099;DHT22;33900;53.640;9.942;2024-01-30T10:59:42;10.20;92.70
15099;DHT22;33900;53.640;9.942;2024-01-30T11:02:08;10.20;92.70
15099;DHT22;33900;53.640;9.942;2024-01-30T11:04:38;10.20;92.70
15099;DHT22;33900;53.640;9.942;2024-01-30T11:07:13;10.30;92.60
15099;DHT22;33900;53.640;9.942;2024-01-30T11:09:40;10.40;92.60
15099;DHT22;33900;53.640;9.942;2024-01-30T11:12:11;10.40;92.60
15099;DHT22;33900;53.640;9.942;2024-01-30T11:14:37;10.40;92.60
15099;DHT22;33900;53.640;9.942;2024-01-30T11:17:05;10.40;92.50
15099;DHT22;33900;53.640;9.942;2024-01-30T11:19:31;10.40;92.80
15099;DHT22;33900;53.640;9.942;2024-01-30T11:21:57;10.50;92.50
15099;DHT22;33900;53.640;9.942;2024-01-30T11:24:23;10.50;92.50
15099;DHT22;33900;53.640;9.942;2024-01-30T11:26:49;10.50;92.40
15099;DHT22;33900;53.640;9.942;2024-01-30T11:29:16;10.50;92.40
15099;DHT22;33900;53.640;9.942;2024-01-30T11:31:51;10.50;92.40
15099;DHT22;33900;53.640;9.942;2024-01-30T11:34:17;10.60;92.50
15099;DHT22;33900;53.640;9.942;2024-01-30T11:36:43;10.60;92.40
15099;DHT22;33900;53.640;9.942;2024-01-30T11:39:11;10.60;92.40
15099;DHT22;33900;53.640;9.942;2024-01-30T11:41:39;10.60;92.40
15099;DHT22;33900;53.640;9.942;2024-01-30T11:44:05;10.60;92.40
15099;DHT22;33900;53.640;9.942;2024-01-30T11:46:31;10.60;92.30
15099;DHT22;33900;53.640;9.942;2024-01-30T11:48:56;10.60;92.30
15099;DHT22;33900;53.640;9.942;2024-01-30T11:51:22;10.60;92.30
15099;DHT22;33900;53.640;9.942;2024-01-30T11:53:49;10.60;92.30
15099;DHT22;33900;53.640;9.942;2024-01-30T11:56:15;10.60;92.30
15099;DHT22;33900;53.640;9.942;2024-01-30T11:58:43;10.70;92.30
15099;DHT22;33900;53.640;9.942;2024-01-30T12:01:10;10.70;92.30
15099;DHT22;33900;53.640;9.942;2024-01-30T12:03:36;10.70;92.30
15099;DHT22;33900;53.640;9.942;2024-01-30T12:06:02;10.70;92.20
15099;DHT22;33900;53.640;9.942;2024-01-30T12:08:28;10.70;92.20
15099;DHT22;33900;53.640;9.942;2024-01-30T12:10:57;10.70;92.20
15099;DHT22;33900;53.640;9.942;2024-01-30T12:13:25;10.70;92.20
15099;DHT22;33900;53.640;9.942;2024-01-30T12:15:51;10.80;92.20
15099;DHT22;33900;53.640;9.942;2024-01-30T12:18:19;10.80;92.20
15099;DHT22;33900;53.640;9.942;2024-01-30T12:20:56;10.80;92.20
15099;DHT22;33900;53.640;9.942;2024-01-30T12:23:21;10.80;92.20
15099;DHT22;33900;53.640;9.942;2024-01-30T12:25:51;10.80;92.20
15099;DHT22;33900;53.640;9.942;2024-01-30T12:28:17;10.80;92.20
15099;DHT22;33900;53.640;9.942;2024-01-30T12:30:42;10.80;92.20
15099;DHT22;33900;53.640;9.942;2024-01-30T12:33:08;10.80;92.20
15099;DHT22;33900;53.640;9.942;2024-01-30T12:35:35;10.90;92.20
15099;DHT22;33900;53.640;9.942;2024-01-30T12:38:04;10.90;92.20
15099;DHT22;33900;53.640;9.942;2024-01-30T12:40:29;10.90;92.20
15099;DHT22;33900;53.640;9.942;2024-01-30T12:42:55;10.90;92.20
15099;DHT22;33900;53.640;9.942;2024-01-30T12:45:21;10.90;92.10
15099;DHT22;33900;53.640;9.942;2024-01-30T12:47:47;10.90;92.10
15099;DHT22;33900;53.640;9.942;2024-01-30T12:50:13;10.90;92.10
15099;DHT22;33900;53.640;9.942;2024-01-30T12:52:41;10.90;92.10
15099;DHT22;33900;53.640;9.942;2024-01-30T12:55:07;11.00;92.20
15099;DHT22;33900;53.640;9.942;2024-01-30T12:57:32;10.90;92.10
15099;DHT22;33900;53.640;9.942;2024-01-30T12:59:58;11.00;92.20
15099;DHT22;33900;53.640;9.942;2024-01-30T13:02:23;11.00;92.10
15099;DHT22;33900;53.640;9.942;2024-01-30T13:04:49;11.00;92.20
15099;DHT22;33900;53.640;9.942;2024-01-30T13:07:15;11.00;92.10
15099;DHT22;33900;53.640;9.942;2024-01-30T13:09:41;11.00;92.10
15099;DHT22;33900;53.640;9.942;2024-01-30T13:12:06;11.00;92.20
15099;DHT22;33900;53.640;9.942;2024-01-30T13:14:32;11.00;92.20
15099;DHT22;33900;53.640;9.942;2024-01-30T13:16:58;11.00;92.20
15099;DHT22;33900;53.640;9.942;2024-01-30T13:19:24;11.00;92.10
15099;DHT22;33900;53.640;9.942;2024-01-30T13:21:49;11.00;92.10
15099;DHT22;33900;53.640;9.942;2024-01-30T13:24:15;11.00;92.20
15099;DHT22;33900;53.640;9.942;2024-01-30T13:26:42;11.00;92.20
15099;DHT22;33900;53.640;9.942;2024-01-30T13:29:07;11.00;92.10
15099;DHT22;33900;53.640;9.942;2024-01-30T13:31:33;11.10;92.20
15099;DHT22;33900;53.640;9.942;2024-01-30T13:34:00;11.10;92.30
15099;DHT22;33900;53.640;9.942;2024-01-30T13:36:25;11.10;92.20
15099;DHT22;33900;53.640;9.942;2024-01-30T13:38:51;11.10;92.30
15099;DHT22;33900;53.640;9.942;2024-01-30T13:41:17;11.10;92.20
15099;DHT22;33900;53.640;9.942;2024-01-30T13:43:43;11.10;92.20
15099;DHT22;33900;53.640;9.942;2024-01-30T13:46:09;11.10;92.20
15099;DHT22;33900;53.640;9.942;2024-01-30T13:48:35;11.20;92.20
15099;DHT22;33900;53.640;9.942;2024-01-30T13:51:01;11.10;92.20
15099;DHT22;33900;53.640;9.942;2024-01-30T13:53:26;11.10;92.20
15099;DHT22;33900;53.640;9.942;2024-01-30T13:55:53;11.10;92.20
15099;DHT22;33900;53.640;9.942;2024-01-30T13:58:19;11.10;92.20
15099;DHT22;33900;53.640;9.942;2024-01-30T14:00:44;11.10;92.20
15099;DHT22;33900;53.640;9.942;2024-01-30T14:03:10;11.10;92.20
15099;DHT22;33900;53.640;9.942;2024-01-30T14:05:36;11.10;92.20
15099;DHT22;33900;53.640;9.942;2024-01-30T14:08:01;11.10;92.20
15099;DHT22;33900;53.640;9.942;2024-01-30T14:10:27;11.10;92.20
15099;DHT22;33900;53.640;9.942;2024-01-30T14:12:52;11.10;92.20
15099;DHT22;33900;53.640;9.942;2024-01-30T14:15:18;11.10;92.20
15099;DHT22;33900;53.640;9.942;2024-01-30T14:17:44;11.10;92.20
15099;DHT22;33900;53.640;9.942;2024-01-30T14:20:10;11.10;92.20
15099;DHT22;33900;53.640;9.942;2024-01-30T14:22:36;11.10;92.20
15099;DHT22;33900;53.640;9.942;2024-01-30T14:25:02;11.10;92.30
15099;DHT22;33900;53.640;9.942;2024-01-30T14:27:31;11.20;92.40
15099;DHT22;33900;53.640;9.942;2024-01-30T14:29:57;11.20;92.40
15099;DHT22;33900;53.640;9.942;2024-01-30T14:32:23;11.20;92.40
15099;DHT22;33900;53.640;9.942;2024-01-30T14:34:49;11.20;92.30
15099;DHT22;33900;53.640;9.942;2024-01-30T14:37:14;11.20;92.30
15099;DHT22;33900;53.640;9.942;2024-01-30T14:39:40;11.20;92.30
15099;DHT22;33900;53.640;9.942;2024-01-30T14:42:06;11.20;92.30
15099;DHT22;33900;53.640;9.942;2024-01-30T14:44:32;11.20;92.30
15099;DHT22;33900;53.640;9.942;2024-01-30T14:46:59;11.20;92.30
15099;DHT22;33900;53.640;9.942;2024-01-30T14:49:25;11.20;92.30
15099;DHT22;33900;53.640;9.942;2024-01-30T14:51:50;11.30;92.40
15099;DHT22;33900;53.640;9.942;2024-01-30T14:54:16;11.20;92.80
15099;DHT22;33900;53.640;9.942;2024-01-30T14:56:41;11.30;92.40
15099;DHT22;33900;53.640;9.942;2024-01-30T14:59:07;11.20;92.40
15099;DHT22;33900;53.640;9.942;2024-01-30T15:01:33;11.30;92.40
15099;DHT22;33900;53.640;9.942;2024-01-30T15:03:58;11.30;92.40
15099;DHT22;33900;53.640;9.942;2024-01-30T15:06:24;11.30;92.40
15099;DHT22;33900;53.640;9.942;2024-01-30T15:08:50;11.30;92.50
15099;DHT22;33900;53.640;9.942;2024-01-30T15:11:16;11.30;92.40
15099;DHT22;33900;53.640;9.942;2024-01-30T15:13:41;11.30;92.40
15099;DHT22;33900;53.640;9.942;2024-01-30T15:16:07;11.30;92.40
15099;DHT22;33900;53.640;9.942;2024-01-30T15:18:33;11.30;92.40
15099;DHT22;33900;53.640;9.942;2024-01-30T15:20:59;11.30;92.40
15099;DHT22;33900;53.640;9.942;2024-01-30T15:23:24;11.30;92.40
15099;DHT22;33900;53.640;9.942;2024-01-30T15:25:50;11.30;92.40
15099;DHT22;33900;53.640;9.942;2024-01-30T15:28:15;11.30;92.40
15099;DHT22;33900;53.640;9.942;2024-01-30T15:30:42;11.40;92.50
15099;DHT22;33900;53.640;9.942;2024-01-30T15:33:11;11.40;92.50
15099;DHT22;33900;53.640;9.942;2024-01-30T15:35:37;11.40;92.60
15099;DHT22;33900;53.640;9.942;2024-01-30T15:38:04;11.40;92.60
15099;DHT22;33900;53.640;9.942;2024-01-30T15:40:33;11.40;92.60